createdAt,value
2022-11-29T07:04:53.816Z,6.70
2022-11-29T07:08:00.868Z,6.70
2022-11-29T07:11:13.453Z,6.60
2022-11-29T07:13:46.782Z,6.60
2022-11-29T07:16:46.329Z,6.60
2022-11-29T07:26:16.555Z,6.70
2022-11-29T07:29:20.903Z,6.70
2022-11-29T07:32:22.070Z,6.70
2022-11-29T07:41:41.304Z,6.80
2022-11-29T07:44:46.021Z,6.80
2022-11-29T07:47:22.192Z,6.80
2022-11-29T15:36:36.195Z,8.20
2022-11-29T16:51:19.193Z,7.60
2022-11-29T18:13:09.470Z,6.00
2022-11-29T18:25:38.063Z,5.80
2022-11-29T18:40:45.153Z,5.80
2022-11-29T18:43:13.174Z,5.80
2022-11-29T18:45:40.120Z,5.80
2022-11-29T18:48:06.874Z,5.90
2022-11-29T18:50:33.529Z,5.90
2022-11-29T18:53:00.277Z,5.90
2022-11-29T18:55:32.999Z,5.90
2022-11-29T18:57:59.874Z,5.90
2022-11-29T19:00:26.532Z,5.90
2022-11-29T19:02:53.517Z,5.90
2022-11-29T19:05:20.256Z,5.90
2022-11-29T19:07:49.515Z,6.00
2022-11-29T19:10:16.414Z,6.00
2022-11-29T19:12:43.086Z,6.00
2022-11-29T19:15:35.273Z,6.00
2022-11-29T19:18:00.105Z,6.00
2022-11-29T19:20:26.891Z,6.00
2022-11-29T19:22:58.985Z,6.10
2022-11-29T19:25:27.252Z,6.00
2022-11-29T19:27:54.190Z,6.10
2022-11-29T19:35:47.252Z,6.00
2022-11-29T19:39:18.708Z,6.00
2022-11-29T19:41:47.272Z,6.00
2022-11-29T19:44:14.887Z,6.00
2022-11-29T19:47:05.999Z,6.00
2022-11-29T19:49:32.721Z,6.00
2022-11-29T19:51:59.524Z,6.00
2022-11-29T19:54:26.432Z,6.00
2022-11-29T21:25:15.070Z,5.90
2022-11-29T22:05:57.508Z,6.10
